Time,TemperatureF,DewpointF,PressureIn,WindDirection,WindDirectionDegrees,WindSpeedMPH,WindSpeedGustMPH,Humidity,HourlyPrecipIn,Conditions,Clouds,dailyrainin,SoftwareType,DateUTC
2013-11-06 00:00:00,41.8,36.1,30.50,SE,144,0.0,-999.0,80,0.00,,,0.00,Wunderground v.1.15,2013-11-06 05:00:00,
2013-11-06 00:01:00,41.8,36.1,30.50,SE,144,0.0,-999.0,80,0.00,,,0.00,Wunderground v.1.15,2013-11-06 05:01:00,
2013-11-06 00:02:00,41.6,35.9,30.50,SE,144,0.0,-999.0,80,0.00,,,0.00,Wunderground v.1.15,2013-11-06 05:02:00,
2013-11-06 00:05:00,41.5,36.1,30.50,SE,144,0.0,-999.0,81,0.00,,,0.00,Wunderground v.1.15,2013-11-06 05:05:00,
2013-11-06 00:06:00,41.3,35.9,30.50,SE,144,0.0,-999.0,81,0.00,,,0.00,Wunderground v.1.15,2013-11-06 05:06:00,
2013-11-06 00:08:00,41.3,35.9,30.50,SE,144,0.0,-999.0,81,0.00,,,0.00,Wunderground v.1.15,2013-11-06 05:08:00,
2013-11-06 00:14:00,41.1,36.0,30.50,SE,144,0.0,-999.0,82,0.00,,,0.00,Wunderground v.1.15,2013-11-06 05:14:00,
2013-11-06 00:19:00,40.8,35.7,30.50,SE,144,0.0,-999.0,82,0.00,,,0.00,Wunderground v.1.15,2013-11-06 05:19:00,
2013-11-06 00:25:00,40.8,36.3,30.50,SE,144,0.0,-999.0,84,0.00,,,0.00,Wunderground v.1.15,2013-11-06 05:25:00,
2013-11-06 00:31:00,41.1,36.9,30.50,SE,144,0.0,-999.0,85,0.00,,,0.00,Wunderground v.1.15,2013-11-06 05:31:00,
2013-11-06 00:37:00,41.6,37.4,30.50,SE,144,0.0,-999.0,85,0.00,,,0.00,Wunderground v.1.15,2013-11-06 05:37:00,
2013-11-06 00:42:00,41.8,37.6,30.50,SE,144,0.0,-999.0,85,0.00,,,0.00,Wunderground v.1.15,2013-11-06 05:42:00,
2013-11-06 00:47:00,41.6,37.1,30.50,SE,144,0.0,-999.0,84,0.00,,,0.00,Wunderground v.1.15,2013-11-06 05:47:00,
2013-11-06 00:53:00,41.1,36.6,30.48,SE,144,0.0,-999.0,84,0.00,,,0.00,Wunderground v.1.15,2013-11-06 05:53:00,
2013-11-06 00:59:00,41.1,36.6,30.48,SE,144,0.0,-999.0,84,0.00,,,0.00,Wunderground v.1.15,2013-11-06 05:59:00,
2013-11-06 01:04:00,40.6,35.8,30.48,SE,144,0.0,-999.0,83,0.00,,,0.00,Wunderground v.1.15,2013-11-06 06:04:00,
2013-11-06 01:09:00,40.1,35.4,30.48,SE,144,0.0,-999.0,83,0.00,,,0.00,Wunderground v.1.15,2013-11-06 06:09:00,
2013-11-06 01:15:00,39.8,35.7,30.48,SE,144,0.0,-999.0,85,0.00,,,0.00,Wunderground v.1.15,2013-11-06 06:15:00,
2013-11-06 01:21:00,39.9,35.8,30.48,SE,144,0.0,-999.0,85,0.00,,,0.00,Wunderground v.1.15,2013-11-06 06:21:00,
2013-11-06 01:26:00,40.1,36.0,30.48,SE,144,0.0,-999.0,85,0.00,,,0.00,Wunderground v.1.15,2013-11-06 06:26:00,
2013-11-06 01:32:00,40.3,36.1,30.48,SE,144,0.0,-999.0,85,0.00,,,0.00,Wunderground v.1.15,2013-11-06 06:32:00,
2013-11-06 01:38:00,40.5,36.3,30.48,SE,144,0.0,-999.0,85,0.00,,,0.00,Wunderground v.1.15,2013-11-06 06:38:00,
2013-11-06 01:44:00,40.6,36.4,30.48,SE,144,0.0,-999.0,85,0.00,,,0.00,Wunderground v.1.15,2013-11-06 06:44:00,
2013-11-06 01:49:00,40.6,36.4,30.48,SE,144,0.0,-999.0,85,0.00,,,0.00,Wunderground v.1.15,2013-11-06 06:49:00,
2013-11-06 01:55:00,40.8,36.6,30.48,SE,144,0.0,-999.0,85,0.00,,,0.00,Wunderground v.1.15,2013-11-06 06:55:00,
2013-11-06 02:00:00,40.8,36.6,30.48,SE,144,0.0,-999.0,85,0.00,,,0.00,Wunderground v.1.15,2013-11-06 07:00:00,
2013-11-06 02:05:00,40.8,36.6,30.48,SE,144,0.0,-999.0,85,0.00,,,0.00,Wunderground v.1.15,2013-11-06 07:05:00,
2013-11-06 02:10:00,40.8,36.9,30.47,SE,143,1.0,-999.0,86,0.00,,,0.00,Wunderground v.1.15,2013-11-06 07:10:00,
2013-11-06 02:15:00,41.2,37.0,30.47,SE,143,0.0,-999.0,85,0.00,,,0.00,Wunderground v.1.15,2013-11-06 07:15:00,
2013-11-06 02:20:00,41.1,36.6,30.47,SE,143,0.0,-999.0,84,0.00,,,0.00,Wunderground v.1.15,2013-11-06 07:20:00,
2013-11-06 02:25:00,40.8,36.3,30.47,SE,143,0.0,-999.0,84,0.00,,,0.00,Wunderground v.1.15,2013-11-06 07:25:00,
2013-11-06 02:30:00,40.6,36.4,30.47,SE,143,0.0,-999.0,85,0.00,,,0.00,Wunderground v.1.15,2013-11-06 07:30:00,
2013-11-06 02:35:00,40.6,36.4,30.47,SE,143,0.0,-999.0,85,0.00,,,0.00,Wunderground v.1.15,2013-11-06 07:35:00,
2013-11-06 02:40:00,40.9,36.7,30.47,SE,143,0.0,-999.0,85,0.00,,,0.00,Wunderground v.1.15,2013-11-06 07:40:00,
2013-11-06 02:45:00,40.9,36.7,30.47,SE,143,0.0,-999.0,85,0.00,,,0.00,Wunderground v.1.15,2013-11-06 07:45:00,
2013-11-06 02:50:00,40.9,37.0,30.47,SE,143,0.0,-999.0,86,0.00,,,0.00,Wunderground v.1.15,2013-11-06 07:50:00,
2013-11-06 02:55:00,41.1,37.2,30.46,SE,143,0.0,-999.0,86,0.00,,,0.00,Wunderground v.1.15,2013-11-06 07:55:00,
2013-11-06 03:00:00,40.9,37.0,30.46,SE,143,0.0,-999.0,86,0.00,,,0.00,Wunderground v.1.15,2013-11-06 08:00:00,
2013-11-06 03:05:00,40.9,37.0,30.46,SE,143,0.0,-999.0,86,0.00,,,0.00,Wunderground v.1.15,2013-11-06 08:05:00,
2013-11-06 03:10:00,41.1,37.2,30.45,SE,143,0.0,-999.0,86,0.00,,,0.00,Wunderground v.1.15,2013-11-06 08:10:00,
2013-11-06 03:15:00,40.8,36.9,30.45,SE,143,0.0,-999.0,86,0.00,,,0.00,Wunderground v.1.15,2013-11-06 08:15:00,
2013-11-06 03:20:00,40.8,36.9,30.45,SE,143,0.0,-999.0,86,0.00,,,0.00,Wunderground v.1.15,2013-11-06 08:20:00,
2013-11-06 03:25:00,40.8,37.2,30.45,SE,143,0.0,-999.0,87,0.00,,,0.00,Wunderground v.1.15,2013-11-06 08:25:00,
2013-11-06 03:30:00,40.6,37.0,30.45,SE,143,0.0,-999.0,87,0.00,,,0.00,Wunderground v.1.15,2013-11-06 08:30:00,
2013-11-06 03:35:00,40.8,37.2,30.45,SE,143,0.0,-999.0,87,0.00,,,0.00,Wunderground v.1.15,2013-11-06 08:35:00,
2013-11-06 03:40:00,40.8,37.2,30.45,SE,143,0.0,-999.0,87,0.00,,,0.00,Wunderground v.1.15,2013-11-06 08:40:00,
2013-11-06 03:45:00,40.6,37.0,30.45,SE,143,0.0,-999.0,87,0.00,,,0.00,Wunderground v.1.15,2013-11-06 08:45:00,
2013-11-06 03:50:00,40.3,36.7,30.45,SE,143,0.0,-999.0,87,0.00,,,0.00,Wunderground v.1.15,2013-11-06 08:50:00,
2013-11-06 03:55:00,39.9,36.3,30.44,SE,143,0.0,-999.0,87,0.00,,,0.00,Wunderground v.1.15,2013-11-06 08:55:00,
2013-11-06 04:00:00,39.6,36.3,30.44,SE,143,0.0,-999.0,88,0.00,,,0.00,Wunderground v.1.15,2013-11-06 09:00:00,
2013-11-06 04:06:00,39.3,36.0,30.44,SE,143,0.0,-999.0,88,0.00,,,0.00,Wunderground v.1.15,2013-11-06 09:06:00,
2013-11-06 04:11:00,39.1,35.8,30.44,SE,143,0.0,-999.0,88,0.00,,,0.00,Wunderground v.1.15,2013-11-06 09:11:00,
2013-11-06 04:16:00,38.8,35.8,30.44,SE,143,0.0,-999.0,89,0.00,,,0.00,Wunderground v.1.15,2013-11-06 09:16:00,
2013-11-06 04:21:00,38.8,35.8,30.44,SE,143,0.0,-999.0,89,0.00,,,0.00,Wunderground v.1.15,2013-11-06 09:21:00,
2013-11-06 04:26:00,38.9,36.2,30.44,SE,143,0.0,-999.0,90,0.00,,,0.00,Wunderground v.1.15,2013-11-06 09:26:00,
2013-11-06 04:31:00,38.8,36.1,30.44,SE,143,0.0,-999.0,90,0.00,,,0.00,Wunderground v.1.15,2013-11-06 09:31:00,
2013-11-06 04:36:00,38.5,35.8,30.44,SE,143,0.0,-999.0,90,0.00,,,0.00,Wunderground v.1.15,2013-11-06 09:36:00,
2013-11-06 04:41:00,38.3,35.6,30.44,SE,143,0.0,-999.0,90,0.00,,,0.00,Wunderground v.1.15,2013-11-06 09:41:00,
2013-11-06 04:46:00,38.0,35.3,30.44,SE,143,0.0,-999.0,90,0.00,,,0.00,Wunderground v.1.15,2013-11-06 09:46:00,
2013-11-06 04:51:00,37.9,35.5,30.44,SE,143,0.0,-999.0,91,0.00,,,0.00,Wunderground v.1.15,2013-11-06 09:51:00,
2013-11-06 04:56:00,37.8,35.4,30.44,SE,143,0.0,-999.0,91,0.00,,,0.00,Wunderground v.1.15,2013-11-06 09:56:00,
2013-11-06 05:01:00,37.6,35.2,30.44,SE,143,0.0,-999.0,91,0.00,,,0.00,Wunderground v.1.15,2013-11-06 10:01:00,
2013-11-06 05:06:00,37.3,34.9,30.44,SE,143,0.0,-999.0,91,0.00,,,0.00,Wunderground v.1.15,2013-11-06 10:06:00,
2013-11-06 05:11:00,37.3,35.2,30.44,SE,143,0.0,-999.0,92,0.00,,,0.00,Wunderground v.1.15,2013-11-06 10:11:00,
2013-11-06 05:16:00,37.3,35.2,30.44,SE,143,0.0,-999.0,92,0.00,,,0.00,Wunderground v.1.15,2013-11-06 10:16:00,
2013-11-06 05:21:00,37.6,35.5,30.44,SE,143,0.0,-999.0,92,0.00,,,0.00,Wunderground v.1.15,2013-11-06 10:21:00,
2013-11-06 05:26:00,37.8,36.0,30.45,SE,143,0.0,-999.0,93,0.00,,,0.00,Wunderground v.1.15,2013-11-06 10:26:00,
2013-11-06 05:31:00,37.8,36.0,30.45,SE,143,0.0,-999.0,93,0.00,,,0.00,Wunderground v.1.15,2013-11-06 10:31:00,
2013-11-06 05:36:00,37.8,36.0,30.45,SE,143,0.0,-999.0,93,0.00,,,0.00,Wunderground v.1.15,2013-11-06 10:36:00,
2013-11-06 05:41:00,37.6,35.8,30.44,SE,143,0.0,-999.0,93,0.00,,,0.00,Wunderground v.1.15,2013-11-06 10:41:00,
2013-11-06 05:46:00,37.8,36.0,30.44,SE,143,0.0,-999.0,93,0.00,,,0.00,Wunderground v.1.15,2013-11-06 10:46:00,
2013-11-06 05:51:00,38.2,36.6,30.44,SE,143,0.0,-999.0,94,0.00,,,0.00,Wunderground v.1.15,2013-11-06 10:51:00,
2013-11-06 05:56:00,38.2,36.6,30.43,SE,143,0.0,-999.0,94,0.00,,,0.00,Wunderground v.1.15,2013-11-06 10:56:00,
2013-11-06 06:01:00,38.5,36.9,30.43,SE,143,0.0,-999.0,94,0.00,,,0.00,Wunderground v.1.15,2013-11-06 11:01:00,
2013-11-06 06:06:00,38.8,37.5,30.43,SE,143,0.0,-999.0,95,0.00,,,0.00,Wunderground v.1.15,2013-11-06 11:06:00,
2013-11-06 06:11:00,39.3,38.0,30.43,SE,143,0.0,-999.0,95,0.00,,,0.00,Wunderground v.1.15,2013-11-06 11:11:00,
2013-11-06 06:16:00,39.9,38.6,30.43,SE,143,0.0,-999.0,95,0.00,,,0.00,Wunderground v.1.15,2013-11-06 11:16:00,
2013-11-06 06:21:00,39.9,38.6,30.43,SE,143,0.0,-999.0,95,0.00,,,0.00,Wunderground v.1.15,2013-11-06 11:21:00,
2013-11-06 06:26:00,39.9,38.3,30.43,SE,143,0.0,-999.0,94,0.00,,,0.00,Wunderground v.1.15,2013-11-06 11:26:00,
2013-11-06 06:31:00,39.6,38.0,30.43,SE,143,0.0,-999.0,94,0.00,,,0.00,Wunderground v.1.15,2013-11-06 11:31:00,
2013-11-06 06:36:00,39.5,37.9,30.43,SE,143,0.0,-999.0,94,0.00,,,0.00,Wunderground v.1.15,2013-11-06 11:36:00,
2013-11-06 06:41:00,39.3,37.7,30.42,SE,143,0.0,-999.0,94,0.00,,,0.00,Wunderground v.1.15,2013-11-06 11:41:00,
2013-11-06 06:46:00,39.1,37.5,30.42,SE,143,0.0,-999.0,94,0.00,,,0.00,Wunderground v.1.15,2013-11-06 11:46:00,
2013-11-06 06:51:00,38.8,37.2,30.42,SE,143,0.0,-999.0,94,0.00,,,0.00,Wunderground v.1.15,2013-11-06 11:51:00,
2013-11-06 06:56:00,38.6,37.0,30.43,SE,143,0.0,-999.0,94,0.00,,,0.00,Wunderground v.1.15,2013-11-06 11:56:00,
2013-11-06 07:02:00,38.6,37.0,30.43,SE,143,0.0,-999.0,94,0.00,,,0.00,Wunderground v.1.15,2013-11-06 12:02:00,
2013-11-06 07:07:00,38.8,37.5,30.43,SE,143,0.0,-999.0,95,0.00,,,0.00,Wunderground v.1.15,2013-11-06 12:07:00,
2013-11-06 07:12:00,39.2,37.9,30.43,SE,143,0.0,-999.0,95,0.00,,,0.00,Wunderground v.1.15,2013-11-06 12:12:00,
2013-11-06 07:17:00,39.5,38.2,30.43,SE,143,0.0,-999.0,95,0.00,,,0.00,Wunderground v.1.15,2013-11-06 12:17:00,
2013-11-06 07:22:00,39.9,38.6,30.43,SE,143,0.0,-999.0,95,0.00,,,0.00,Wunderground v.1.15,2013-11-06 12:22:00,
2013-11-06 07:27:00,40.3,39.3,30.42,SE,143,0.0,-999.0,96,0.00,,,0.00,Wunderground v.1.15,2013-11-06 12:27:00,
2013-11-06 07:32:00,40.8,39.7,30.42,SE,143,0.0,-999.0,96,0.00,,,0.00,Wunderground v.1.15,2013-11-06 12:32:00,
2013-11-06 07:37:00,41.2,39.9,30.43,SE,143,0.0,-999.0,95,0.00,,,0.00,Wunderground v.1.15,2013-11-06 12:37:00,
2013-11-06 07:42:00,41.3,40.0,30.43,SE,143,0.0,-999.0,95,0.00,,,0.00,Wunderground v.1.15,2013-11-06 12:42:00,
2013-11-06 07:47:00,41.9,40.6,30.43,SE,143,0.0,-999.0,95,0.00,,,0.00,Wunderground v.1.15,2013-11-06 12:47:00,
2013-11-06 07:52:00,42.5,40.9,30.42,SE,143,0.0,-999.0,94,0.00,,,0.00,Wunderground v.1.15,2013-11-06 12:52:00,
2013-11-06 07:57:00,42.8,40.6,30.42,SE,143,0.0,-999.0,92,0.00,,,0.00,Wunderground v.1.15,2013-11-06 12:57:00,
2013-11-06 08:02:00,43.3,41.1,30.42,SE,143,0.0,-999.0,92,0.00,,,0.00,Wunderground v.1.15,2013-11-06 13:02:00,
2013-11-06 08:07:00,44.1,41.6,30.42,SE,143,0.0,-999.0,91,0.00,,,0.00,Wunderground v.1.15,2013-11-06 13:07:00,
2013-11-06 08:12:00,44.8,42.0,30.42,SE,143,0.0,-999.0,90,0.00,,,0.00,Wunderground v.1.15,2013-11-06 13:12:00,
2013-11-06 08:17:00,45.5,42.4,30.42,SE,143,0.0,-999.0,89,0.00,,,0.00,Wunderground v.1.15,2013-11-06 13:17:00,
2013-11-06 08:22:00,46.4,43.3,30.41,SSE,159,0.0,-999.0,89,0.00,,,0.00,Wunderground v.1.15,2013-11-06 13:22:00,
2013-11-06 08:27:00,47.3,43.3,30.41,South,171,0.0,-999.0,86,0.00,,,0.00,Wunderground v.1.15,2013-11-06 13:27:00,
2013-11-06 08:32:00,47.3,42.7,30.41,South,171,0.0,-999.0,84,0.00,,,0.00,Wunderground v.1.15,2013-11-06 13:32:00,
2013-11-06 08:37:00,47.4,42.5,30.41,South,171,0.0,-999.0,83,0.00,,,0.00,Wunderground v.1.15,2013-11-06 13:37:00,
2013-11-06 08:42:00,47.7,42.5,30.41,South,171,0.0,-999.0,82,0.00,,,0.00,Wunderground v.1.15,2013-11-06 13:42:00,
2013-11-06 08:47:00,48.8,43.5,30.41,South,173,0.0,-999.0,82,0.00,,,0.00,Wunderground v.1.15,2013-11-06 13:47:00,
2013-11-06 08:52:00,49.6,43.7,30.40,South,173,0.0,-999.0,80,0.00,,,0.00,Wunderground v.1.15,2013-11-06 13:52:00,
2013-11-06 08:57:00,50.1,43.5,30.40,South,186,3.0,-999.0,78,0.00,,,0.00,Wunderground v.1.15,2013-11-06 13:57:00,
2013-11-06 09:02:00,50.4,43.5,30.40,South,186,4.0,-999.0,77,0.00,,,0.00,Wunderground v.1.15,2013-11-06 14:02:00,
2013-11-06 09:07:00,51.0,43.4,30.40,South,188,0.0,-999.0,75,0.00,,,0.00,Wunderground v.1.15,2013-11-06 14:07:00,
2013-11-06 09:12:00,51.4,43.7,30.40,South,190,4.0,-999.0,75,0.00,,,0.00,Wunderground v.1.15,2013-11-06 14:12:00,
2013-11-06 09:17:00,52.0,44.3,30.40,SW,225,4.0,-999.0,75,0.00,,,0.00,Wunderground v.1.15,2013-11-06 14:17:00,
2013-11-06 09:22:00,52.2,44.2,30.40,SW,224,1.0,-999.0,74,0.00,,,0.00,Wunderground v.1.15,2013-11-06 14:22:00,
2013-11-06 09:27:00,52.5,44.4,30.40,South,180,7.0,-999.0,74,0.00,,,0.00,Wunderground v.1.15,2013-11-06 14:27:00,
2013-11-06 09:32:00,52.8,44.7,30.40,SSW,212,5.0,-999.0,74,0.00,,,0.00,Wunderground v.1.15,2013-11-06 14:32:00,
2013-11-06 09:37:00,53.3,44.9,30.39,SW,215,1.0,-999.0,73,0.00,,,0.00,Wunderground v.1.15,2013-11-06 14:37:00,
2013-11-06 09:42:00,53.8,45.0,30.39,South,171,0.0,-999.0,72,0.00,,,0.00,Wunderground v.1.15,2013-11-06 14:42:00,
2013-11-06 09:47:00,54.1,45.3,30.39,SSE,164,2.0,-999.0,72,0.00,,,0.00,Wunderground v.1.15,2013-11-06 14:47:00,
2013-11-06 09:52:00,54.2,44.6,30.38,SW,235,12.0,-999.0,70,0.00,,,0.00,Wunderground v.1.15,2013-11-06 14:52:00,
2013-11-06 09:57:00,53.5,43.6,30.38,South,171,8.0,-999.0,69,0.00,,,0.00,Wunderground v.1.15,2013-11-06 14:57:00,
2013-11-06 10:02:00,53.3,43.4,30.38,SW,225,11.0,-999.0,69,0.00,,,0.00,Wunderground v.1.15,2013-11-06 15:02:00,
2013-11-06 10:07:00,53.6,43.3,30.37,SSW,202,7.0,-999.0,68,0.00,,,0.00,Wunderground v.1.15,2013-11-06 15:07:00,
2013-11-06 10:12:00,54.2,43.9,30.37,South,190,10.0,-999.0,68,0.00,,,0.00,Wunderground v.1.15,2013-11-06 15:12:00,
2013-11-06 10:17:00,54.5,43.8,30.37,SSW,192,2.0,-999.0,67,0.00,,,0.00,Wunderground v.1.15,2013-11-06 15:17:00,
2013-11-06 10:22:00,55.1,43.9,30.37,SSE,157,6.0,-999.0,66,0.00,,,0.00,Wunderground v.1.15,2013-11-06 15:22:00,
2013-11-06 10:27:00,55.3,43.7,30.37,SW,232,7.0,-999.0,65,0.00,,,0.00,Wunderground v.1.15,2013-11-06 15:27:00,
2013-11-06 10:32:00,55.1,43.5,30.37,South,187,7.0,-999.0,65,0.00,,,0.00,Wunderground v.1.15,2013-11-06 15:32:00,
2013-11-06 10:37:00,55.1,43.5,30.36,SW,217,9.0,-999.0,65,0.00,,,0.00,Wunderground v.1.15,2013-11-06 15:37:00,
2013-11-06 10:43:00,55.1,43.9,30.36,SSW,194,5.0,-999.0,66,0.00,,,0.00,Wunderground v.1.15,2013-11-06 15:43:00,
2013-11-06 10:48:00,55.7,43.7,30.36,SW,217,11.0,-999.0,64,0.00,,,0.00,Wunderground v.1.15,2013-11-06 15:48:00,
2013-11-06 10:53:00,55.7,43.7,30.36,South,176,4.0,-999.0,64,0.00,,,0.00,Wunderground v.1.15,2013-11-06 15:53:00,
2013-11-06 10:58:00,55.7,43.7,30.36,South,178,7.0,-999.0,64,0.00,,,0.00,Wunderground v.1.15,2013-11-06 15:58:00,
2013-11-06 11:03:00,55.7,44.1,30.36,WSW,242,8.0,-999.0,65,0.00,,,0.00,Wunderground v.1.15,2013-11-06 16:03:00,
2013-11-06 11:08:00,55.6,44.0,30.36,SW,225,10.0,-999.0,65,0.00,,,0.00,Wunderground v.1.15,2013-11-06 16:08:00,
2013-11-06 11:13:00,55.4,43.8,30.36,WSW,238,12.0,-999.0,65,0.00,,,0.00,Wunderground v.1.15,2013-11-06 16:13:00,
2013-11-06 11:18:00,55.1,43.5,30.36,WSW,246,10.0,-999.0,65,0.00,,,0.00,Wunderground v.1.15,2013-11-06 16:18:00,
2013-11-06 11:23:00,55.1,43.5,30.35,WSW,244,7.0,-999.0,65,0.00,,,0.00,Wunderground v.1.15,2013-11-06 16:23:00,
2013-11-06 11:28:00,55.1,43.5,30.35,SW,216,9.0,-999.0,65,0.00,,,0.00,Wunderground v.1.15,2013-11-06 16:28:00,
2013-11-06 11:33:00,55.4,43.0,30.35,SW,223,0.0,-999.0,63,0.00,,,0.00,Wunderground v.1.15,2013-11-06 16:33:00,
2013-11-06 11:38:00,55.6,43.6,30.34,South,188,4.0,-999.0,64,0.00,,,0.00,Wunderground v.1.15,2013-11-06 16:38:00,
2013-11-06 11:43:00,55.7,43.7,30.34,West,262,7.0,-999.0,64,0.00,,,0.00,Wunderground v.1.15,2013-11-06 16:43:00,
2013-11-06 11:48:00,56.2,43.8,30.34,South,175,10.0,-999.0,63,0.00,,,0.00,Wunderground v.1.15,2013-11-06 16:48:00,
2013-11-06 11:53:00,56.2,43.3,30.32,SSW,213,5.0,-999.0,62,0.00,,,0.00,Wunderground v.1.15,2013-11-06 16:53:00,
2013-11-06 11:58:00,56.2,43.3,30.32,SW,218,6.0,-999.0,62,0.00,,,0.00,Wunderground v.1.15,2013-11-06 16:58:00,
2013-11-06 12:03:00,57.0,43.2,30.32,South,179,2.0,-999.0,60,0.00,,,0.00,Wunderground v.1.15,2013-11-06 17:03:00,
2013-11-06 12:08:00,57.3,43.1,30.31,South,189,1.0,-999.0,59,0.00,,,0.00,Wunderground v.1.15,2013-11-06 17:08:00,
2013-11-06 12:13:00,57.0,44.5,30.31,SSW,213,12.0,-999.0,63,0.00,,,0.00,Wunderground v.1.15,2013-11-06 17:13:00,
2013-11-06 12:18:00,57.3,42.6,30.31,SSW,197,9.0,-999.0,58,0.00,,,0.00,Wunderground v.1.15,2013-11-06 17:18:00,
2013-11-06 12:23:00,57.5,43.3,30.31,WSW,252,5.0,-999.0,59,0.00,,,0.00,Wunderground v.1.15,2013-11-06 17:23:00,
2013-11-06 12:28:00,57.3,43.1,30.31,SW,218,6.0,-999.0,59,0.00,,,0.00,Wunderground v.1.15,2013-11-06 17:28:00,
2013-11-06 12:33:00,57.5,43.7,30.31,SW,219,6.0,-999.0,60,0.00,,,0.00,Wunderground v.1.15,2013-11-06 17:33:00,
2013-11-06 12:38:00,57.5,44.6,30.29,SSW,199,14.0,-999.0,62,0.00,,,0.00,Wunderground v.1.15,2013-11-06 17:38:00,
2013-11-06 12:43:00,57.2,43.4,30.29,WSW,258,8.0,-999.0,60,0.00,,,0.00,Wunderground v.1.15,2013-11-06 17:43:00,
2013-11-06 12:48:00,57.5,43.7,30.29,SW,227,12.0,-999.0,60,0.00,,,0.00,Wunderground v.1.15,2013-11-06 17:48:00,
2013-11-06 12:53:00,57.6,42.9,30.29,WSW,246,12.0,-999.0,58,0.00,,,0.00,Wunderground v.1.15,2013-11-06 17:53:00,
2013-11-06 12:58:00,57.6,43.4,30.29,WSW,237,15.0,-999.0,59,0.00,,,0.00,Wunderground v.1.15,2013-11-06 17:58:00,
2013-11-06 13:03:00,57.6,43.4,30.29,SSW,207,12.0,-999.0,59,0.00,,,0.00,Wunderground v.1.15,2013-11-06 18:03:00,
2013-11-06 13:08:00,57.5,43.3,30.27,SW,225,6.0,-999.0,59,0.00,,,0.00,Wunderground v.1.15,2013-11-06 18:08:00,
2013-11-06 13:13:00,57.6,43.4,30.27,SW,214,13.0,-999.0,59,0.00,,,0.00,Wunderground v.1.15,2013-11-06 18:13:00,
2013-11-06 13:18:00,57.6,43.8,30.27,WSW,244,4.0,-999.0,60,0.00,,,0.00,Wunderground v.1.15,2013-11-06 18:18:00,
2013-11-06 13:23:00,58.0,45.0,30.26,WSW,249,7.0,-999.0,62,0.00,,,0.00,Wunderground v.1.15,2013-11-06 18:23:00,
2013-11-06 13:28:00,58.0,44.2,30.26,SW,219,10.0,-999.0,60,0.00,,,0.00,Wunderground v.1.15,2013-11-06 18:28:00,
2013-11-06 13:33:00,58.1,44.7,30.26,SW,234,11.0,-999.0,61,0.00,,,0.00,Wunderground v.1.15,2013-11-06 18:33:00,
2013-11-06 13:38:00,58.4,44.6,30.26,SW,220,10.0,-999.0,60,0.00,,,0.00,Wunderground v.1.15,2013-11-06 18:38:00,
2013-11-06 13:43:00,58.0,45.0,30.26,SW,230,12.0,-999.0,62,0.00,,,0.00,Wunderground v.1.15,2013-11-06 18:43:00,
2013-11-06 13:48:00,57.8,45.3,30.26,SW,228,10.0,-999.0,63,0.00,,,0.00,Wunderground v.1.15,2013-11-06 18:48:00,
2013-11-06 13:53:00,57.8,44.9,30.26,SW,232,13.0,-999.0,62,0.00,,,0.00,Wunderground v.1.15,2013-11-06 18:53:00,
2013-11-06 13:58:00,57.6,44.2,30.26,WSW,250,9.0,-999.0,61,0.00,,,0.00,Wunderground v.1.15,2013-11-06 18:58:00,
2013-11-06 14:03:00,57.8,44.4,30.26,SW,228,16.0,-999.0,61,0.00,,,0.00,Wunderground v.1.15,2013-11-06 19:03:00,
2013-11-06 14:09:00,57.8,44.4,30.26,SW,223,4.0,-999.0,61,0.00,,,0.00,Wunderground v.1.15,2013-11-06 19:09:00,
2013-11-06 14:14:00,58.0,44.6,30.26,SW,229,8.0,-999.0,61,0.00,,,0.00,Wunderground v.1.15,2013-11-06 19:14:00,
2013-11-06 14:19:00,58.1,45.1,30.26,South,171,6.0,-999.0,62,0.00,,,0.00,Wunderground v.1.15,2013-11-06 19:19:00,
2013-11-06 14:24:00,58.1,46.8,30.26,South,183,5.0,-999.0,66,0.00,,,0.00,Wunderground v.1.15,2013-11-06 19:24:00,
2013-11-06 14:29:00,57.8,45.7,30.26,SW,225,8.0,-999.0,64,0.00,,,0.00,Wunderground v.1.15,2013-11-06 19:29:00,
2013-11-06 14:34:00,57.6,45.9,30.26,SSW,207,8.0,-999.0,65,0.00,,,0.00,Wunderground v.1.15,2013-11-06 19:34:00,
2013-11-06 14:39:00,57.6,45.9,30.25,SW,222,6.0,-999.0,65,0.00,,,0.00,Wunderground v.1.15,2013-11-06 19:39:00,
2013-11-06 14:44:00,57.5,46.6,30.25,SSE,157,8.0,-999.0,67,0.00,,,0.00,Wunderground v.1.15,2013-11-06 19:44:00,
2013-11-06 14:49:00,57.3,47.2,30.25,South,184,3.0,-999.0,69,0.00,,,0.00,Wunderground v.1.15,2013-11-06 19:49:00,
2013-11-06 14:54:00,57.2,47.5,30.25,SW,233,5.0,-999.0,70,0.00,,,0.00,Wunderground v.1.15,2013-11-06 19:54:00,
2013-11-06 14:59:00,57.3,48.0,30.25,SW,229,8.0,-999.0,71,0.00,,,0.00,Wunderground v.1.15,2013-11-06 19:59:00,
2013-11-06 15:04:00,57.3,48.0,30.25,SW,223,1.0,-999.0,71,0.00,,,0.00,Wunderground v.1.15,2013-11-06 20:04:00,
2013-11-06 15:09:00,57.3,48.0,30.24,South,186,14.0,-999.0,71,0.00,,,0.00,Wunderground v.1.15,2013-11-06 20:09:00,
2013-11-06 15:14:00,57.3,48.3,30.24,SW,228,4.0,-999.0,72,0.00,,,0.00,Wunderground v.1.15,2013-11-06 20:14:00,
2013-11-06 15:19:00,57.2,48.3,30.24,SSW,193,3.0,-999.0,72,0.00,,,0.00,Wunderground v.1.15,2013-11-06 20:19:00,
2013-11-06 15:24:00,57.0,48.1,30.24,SSE,157,5.0,-999.0,72,0.00,,,0.00,Wunderground v.1.15,2013-11-06 20:24:00,
2013-11-06 15:29:00,57.2,48.3,30.24,SW,215,4.0,-999.0,72,0.00,,,0.00,Wunderground v.1.15,2013-11-06 20:29:00,
2013-11-06 15:34:00,57.2,48.3,30.24,South,190,6.0,-999.0,72,0.00,,,0.00,Wunderground v.1.15,2013-11-06 20:34:00,
2013-11-06 15:39:00,57.2,47.5,30.25,SW,227,7.0,-999.0,70,0.00,,,0.00,Wunderground v.1.15,2013-11-06 20:39:00,
2013-11-06 15:44:00,57.2,48.6,30.25,SW,223,13.0,-999.0,73,0.00,,,0.00,Wunderground v.1.15,2013-11-06 20:44:00,
2013-11-06 15:49:00,57.0,47.7,30.25,SW,223,3.0,-999.0,71,0.00,,,0.00,Wunderground v.1.15,2013-11-06 20:49:00,
2013-11-06 15:54:00,57.0,48.1,30.25,SSW,195,6.0,-999.0,72,0.00,,,0.00,Wunderground v.1.15,2013-11-06 20:54:00,
2013-11-06 15:59:00,56.9,48.7,30.25,SSW,199,4.0,-999.0,74,0.00,,,0.00,Wunderground v.1.15,2013-11-06 20:59:00,
2013-11-06 16:04:00,56.7,48.5,30.25,SSW,213,2.0,-999.0,74,0.00,,,0.00,Wunderground v.1.15,2013-11-06 21:04:00,
2013-11-06 16:09:00,56.7,48.5,30.24,SW,217,10.0,-999.0,74,0.00,,,0.00,Wunderground v.1.15,2013-11-06 21:09:00,
2013-11-06 16:14:00,56.7,48.9,30.24,SSW,198,7.0,-999.0,75,0.00,,,0.00,Wunderground v.1.15,2013-11-06 21:14:00,
2013-11-06 16:19:00,56.6,48.8,30.24,SSE,163,4.0,-999.0,75,0.00,,,0.00,Wunderground v.1.15,2013-11-06 21:19:00,
2013-11-06 16:24:00,56.6,48.8,30.23,South,178,9.0,-999.0,75,0.00,,,0.00,Wunderground v.1.15,2013-11-06 21:24:00,
2013-11-06 16:29:00,56.5,48.7,30.23,SW,217,0.0,-999.0,75,0.00,,,0.00,Wunderground v.1.15,2013-11-06 21:29:00,
2013-11-06 16:34:00,56.5,49.0,30.23,SW,219,4.0,-999.0,76,0.00,,,0.00,Wunderground v.1.15,2013-11-06 21:34:00,
2013-11-06 16:39:00,56.5,49.0,30.23,SSW,202,0.0,-999.0,76,0.00,,,0.00,Wunderground v.1.15,2013-11-06 21:39:00,
2013-11-06 16:44:00,56.3,49.2,30.23,SSW,207,0.0,-999.0,77,0.00,,,0.00,Wunderground v.1.15,2013-11-06 21:44:00,
2013-11-06 16:49:00,56.3,49.5,30.23,SW,216,5.0,-999.0,78,0.00,,,0.00,Wunderground v.1.15,2013-11-06 21:49:00,
2013-11-06 16:54:00,56.2,49.4,30.23,South,175,4.0,-999.0,78,0.00,,,0.00,Wunderground v.1.15,2013-11-06 21:54:00,
2013-11-06 16:59:00,56.0,49.6,30.23,SSW,207,5.0,-999.0,79,0.00,,,0.00,Wunderground v.1.15,2013-11-06 21:59:00,
2013-11-06 17:04:00,56.0,49.6,30.23,SW,224,6.0,-999.0,79,0.00,,,0.00,Wunderground v.1.15,2013-11-06 22:04:00,
2013-11-06 17:10:00,55.9,49.5,30.22,South,186,4.0,-999.0,79,0.00,,,0.00,Wunderground v.1.15,2013-11-06 22:10:00,
2013-11-06 17:15:00,55.9,49.8,30.22,South,175,4.0,-999.0,80,0.00,,,0.00,Wunderground v.1.15,2013-11-06 22:15:00,
2013-11-06 17:20:00,55.9,49.8,30.22,SSW,193,7.0,-999.0,80,0.00,,,0.00,Wunderground v.1.15,2013-11-06 22:20:00,
2013-11-06 17:25:00,55.9,50.2,30.21,SW,225,0.0,-999.0,81,0.00,,,0.00,Wunderground v.1.15,2013-11-06 22:25:00,
2013-11-06 17:30:00,55.9,50.2,30.21,SW,221,8.0,-999.0,81,0.00,,,0.00,Wunderground v.1.15,2013-11-06 22:30:00,
2013-11-06 17:35:00,55.7,50.0,30.21,SW,223,9.0,-999.0,81,0.00,,,0.00,Wunderground v.1.15,2013-11-06 22:35:00,
2013-11-06 17:40:00,55.6,50.2,30.21,SSW,199,9.0,-999.0,82,0.00,,,0.00,Wunderground v.1.15,2013-11-06 22:40:00,
2013-11-06 17:45:00,55.6,50.2,30.21,SW,225,0.0,-999.0,82,0.00,,,0.00,Wunderground v.1.15,2013-11-06 22:45:00,
2013-11-06 17:50:00,55.4,50.3,30.21,SSW,205,5.0,-999.0,83,0.00,,,0.00,Wunderground v.1.15,2013-11-06 22:50:00,
2013-11-06 17:55:00,55.3,50.2,30.21,SSE,168,6.0,-999.0,83,0.00,,,0.00,Wunderground v.1.15,2013-11-06 22:55:00,
2013-11-06 18:00:00,55.3,50.5,30.21,SSW,194,2.0,-999.0,84,0.00,,,0.00,Wunderground v.1.15,2013-11-06 23:00:00,
2013-11-06 18:05:00,55.3,50.5,30.21,SSW,213,3.0,-999.0,84,0.00,,,0.00,Wunderground v.1.15,2013-11-06 23:05:00,
2013-11-06 18:10:00,55.1,50.7,30.21,South,180,5.0,-999.0,85,0.00,,,0.00,Wunderground v.1.15,2013-11-06 23:10:00,
2013-11-06 18:15:00,55.0,50.6,30.21,SW,219,6.0,-999.0,85,0.00,,,0.00,Wunderground v.1.15,2013-11-06 23:15:00,
2013-11-06 18:20:00,54.8,50.7,30.21,SW,218,4.0,-999.0,86,0.00,,,0.00,Wunderground v.1.15,2013-11-06 23:20:00,
2013-11-06 18:25:00,54.7,50.6,30.21,SW,218,2.0,-999.0,86,0.00,,,0.00,Wunderground v.1.15,2013-11-06 23:25:00,
2013-11-06 18:30:00,54.5,50.4,30.21,SSW,209,5.0,-999.0,86,0.00,,,0.00,Wunderground v.1.15,2013-11-06 23:30:00,
2013-11-06 18:35:00,54.4,50.6,30.21,SSW,209,0.0,-999.0,87,0.00,,,0.00,Wunderground v.1.15,2013-11-06 23:35:00,
2013-11-06 18:40:00,54.2,50.4,30.20,SSW,209,0.0,-999.0,87,0.00,,,0.00,Wunderground v.1.15,2013-11-06 23:40:00,
2013-11-06 18:45:00,54.1,50.3,30.20,SSW,209,0.0,-999.0,87,0.00,,,0.00,Wunderground v.1.15,2013-11-06 23:45:00,
2013-11-06 18:50:00,53.9,50.4,30.20,SSW,209,0.0,-999.0,88,0.00,,,0.00,Wunderground v.1.15,2013-11-06 23:50:00,
2013-11-06 18:55:00,53.6,50.1,30.20,SSW,209,0.0,-999.0,88,0.00,,,0.00,Wunderground v.1.15,2013-11-06 23:55:00,
2013-11-06 19:00:00,53.5,50.3,30.20,SSW,209,0.0,-999.0,89,0.00,,,0.00,Wunderground v.1.15,2013-11-07 00:00:00,
2013-11-06 19:05:00,53.3,50.1,30.20,SSW,209,0.0,-999.0,89,0.00,,,0.00,Wunderground v.1.15,2013-11-07 00:05:00,
2013-11-06 19:10:00,53.2,50.0,30.18,SSW,209,0.0,-999.0,89,0.00,,,0.00,Wunderground v.1.15,2013-11-07 00:10:00,
2013-11-06 19:15:00,53.1,50.2,30.18,SSW,209,0.0,-999.0,90,0.00,,,0.00,Wunderground v.1.15,2013-11-07 00:15:00,
2013-11-06 19:20:00,53.3,50.4,30.18,SSW,209,0.0,-999.0,90,0.00,,,0.00,Wunderground v.1.15,2013-11-07 00:20:00,
2013-11-06 19:25:00,53.5,50.9,30.17,SSW,209,0.0,-999.0,91,0.00,,,0.00,Wunderground v.1.15,2013-11-07 00:25:00,
2013-11-06 19:30:00,53.8,51.2,30.17,SSW,209,0.0,-999.0,91,0.00,,,0.00,Wunderground v.1.15,2013-11-07 00:30:00,
2013-11-06 19:35:00,53.8,50.9,30.17,SSW,206,0.0,-999.0,90,0.00,,,0.00,Wunderground v.1.15,2013-11-07 00:35:00,
2013-11-06 19:40:00,53.6,50.7,30.17,SSW,206,4.0,-999.0,90,0.00,,,0.00,Wunderground v.1.15,2013-11-07 00:40:00,
2013-11-06 19:45:00,53.5,50.6,30.17,SSW,205,0.0,-999.0,90,0.00,,,0.00,Wunderground v.1.15,2013-11-07 00:45:00,
2013-11-06 19:50:00,53.3,50.7,30.17,SSW,206,0.0,-999.0,91,0.00,,,0.00,Wunderground v.1.15,2013-11-07 00:50:00,
2013-11-06 19:55:00,53.3,51.0,30.16,SSW,207,0.0,-999.0,92,0.00,,,0.00,Wunderground v.1.15,2013-11-07 00:55:00,
2013-11-06 20:00:00,53.3,51.0,30.16,SSW,210,0.0,-999.0,92,0.00,,,0.00,Wunderground v.1.15,2013-11-07 01:00:00,
2013-11-06 20:05:00,53.2,50.9,30.16,SSW,210,0.0,-999.0,92,0.00,,,0.00,Wunderground v.1.15,2013-11-07 01:05:00,
2013-11-06 20:10:00,53.3,51.0,30.16,SSW,210,0.0,-999.0,92,0.00,,,0.00,Wunderground v.1.15,2013-11-07 01:10:00,
2013-11-06 20:15:00,53.1,50.8,30.16,SSW,210,0.0,-999.0,92,0.00,,,0.00,Wunderground v.1.15,2013-11-07 01:15:00,
2013-11-06 20:20:00,52.8,50.8,30.16,SSW,210,0.0,-999.0,93,0.00,,,0.00,Wunderground v.1.15,2013-11-07 01:20:00,
2013-11-06 20:25:00,52.8,50.8,30.15,SSW,210,0.0,-999.0,93,0.00,,,0.00,Wunderground v.1.15,2013-11-07 01:25:00,
2013-11-06 20:30:00,52.6,50.9,30.15,SSW,210,0.0,-999.0,94,0.00,,,0.00,Wunderground v.1.15,2013-11-07 01:30:00,
2013-11-06 20:35:00,52.6,50.9,30.15,SSW,210,0.0,-999.0,94,0.00,,,0.00,Wunderground v.1.15,2013-11-07 01:35:00,
2013-11-06 20:40:00,52.6,50.9,30.15,SSW,210,0.0,-999.0,94,0.00,,,0.00,Wunderground v.1.15,2013-11-07 01:40:00,
2013-11-06 20:45:00,52.6,51.2,30.15,SSW,210,0.0,-999.0,95,0.00,,,0.00,Wunderground v.1.15,2013-11-07 01:45:00,
2013-11-06 20:50:00,52.6,51.2,30.15,SSW,210,0.0,-999.0,95,0.00,,,0.00,Wunderground v.1.15,2013-11-07 01:50:00,
2013-11-06 20:55:00,52.8,51.4,30.15,SSW,210,0.0,-999.0,95,0.00,,,0.00,Wunderground v.1.15,2013-11-07 01:55:00,
2013-11-06 21:00:00,52.9,51.8,30.15,SSW,210,0.0,-999.0,96,0.00,,,0.00,Wunderground v.1.15,2013-11-07 02:00:00,
2013-11-06 21:05:00,53.1,52.0,30.15,SSW,210,0.0,-999.0,96,0.00,,,0.00,Wunderground v.1.15,2013-11-07 02:05:00,
2013-11-06 21:10:00,53.1,52.0,30.14,SSW,210,0.0,-999.0,96,0.00,,,0.00,Wunderground v.1.15,2013-11-07 02:10:00,
2013-11-06 21:15:00,53.2,52.1,30.14,SSW,210,0.0,-999.0,96,0.00,,,0.00,Wunderground v.1.15,2013-11-07 02:15:00,
2013-11-06 21:20:00,53.2,52.1,30.14,SSW,210,0.0,-999.0,96,0.00,,,0.00,Wunderground v.1.15,2013-11-07 02:20:00,
2013-11-06 21:25:00,53.2,52.1,30.14,SSW,210,0.0,-999.0,96,0.00,,,0.00,Wunderground v.1.15,2013-11-07 02:25:00,
2013-11-06 21:30:00,53.2,52.1,30.14,SSW,210,0.0,-999.0,96,0.00,,,0.00,Wunderground v.1.15,2013-11-07 02:30:00,
2013-11-06 21:35:00,53.1,52.0,30.14,SSW,210,0.0,-999.0,96,0.00,,,0.00,Wunderground v.1.15,2013-11-07 02:35:00,
2013-11-06 21:40:00,52.9,51.8,30.13,SSW,210,0.0,-999.0,96,0.00,,,0.00,Wunderground v.1.15,2013-11-07 02:40:00,
2013-11-06 21:45:00,52.9,51.8,30.13,SSW,210,0.0,-999.0,96,0.00,,,0.00,Wunderground v.1.15,2013-11-07 02:45:00,
2013-11-06 21:50:00,53.1,52.0,30.13,SSW,209,0.0,-999.0,96,0.00,,,0.00,Wunderground v.1.15,2013-11-07 02:50:00,
2013-11-06 21:56:00,53.1,52.0,30.12,SSW,209,0.0,-999.0,96,0.00,,,0.00,Wunderground v.1.15,2013-11-07 02:56:00,
2013-11-06 22:01:00,52.9,51.8,30.12,SSW,209,0.0,-999.0,96,0.00,,,0.00,Wunderground v.1.15,2013-11-07 03:01:00,
2013-11-06 22:06:00,52.8,51.7,30.12,SSW,209,4.0,-999.0,96,0.00,,,0.00,Wunderground v.1.15,2013-11-07 03:06:00,
2013-11-06 22:11:00,52.8,51.7,30.12,SSW,209,0.0,-999.0,96,0.00,,,0.00,Wunderground v.1.15,2013-11-07 03:11:00,
2013-11-06 22:16:00,52.8,51.7,30.12,SSW,209,0.0,-999.0,96,0.00,,,0.00,Wunderground v.1.15,2013-11-07 03:16:00,
2013-11-06 22:21:00,52.6,51.5,30.12,SSW,209,0.0,-999.0,96,0.00,,,0.00,Wunderground v.1.15,2013-11-07 03:21:00,
2013-11-06 22:26:00,52.6,51.5,30.11,SSW,209,0.0,-999.0,96,0.00,,,0.00,Wunderground v.1.15,2013-11-07 03:26:00,
2013-11-06 22:31:00,52.6,51.5,30.11,SSW,209,4.0,-999.0,96,0.00,,,0.00,Wunderground v.1.15,2013-11-07 03:31:00,
2013-11-06 22:36:00,52.5,51.4,30.11,SSW,209,2.0,-999.0,96,0.00,,,0.00,Wunderground v.1.15,2013-11-07 03:36:00,
2013-11-06 22:41:00,52.6,51.5,30.10,SSW,209,0.0,-999.0,96,0.00,,,0.00,Wunderground v.1.15,2013-11-07 03:41:00,
2013-11-06 22:46:00,52.6,51.5,30.10,SSW,209,0.0,-999.0,96,0.00,,,0.00,Wunderground v.1.15,2013-11-07 03:46:00,
2013-11-06 22:51:00,52.8,51.7,30.10,SSW,209,0.0,-999.0,96,0.00,,,0.00,Wunderground v.1.15,2013-11-07 03:51:00,
2013-11-06 22:56:00,52.6,51.5,30.09,SSW,209,0.0,-999.0,96,0.00,,,0.00,Wunderground v.1.15,2013-11-07 03:56:00,
2013-11-06 23:01:00,52.6,51.5,30.09,SSW,209,0.0,-999.0,96,0.00,,,0.00,Wunderground v.1.15,2013-11-07 04:01:00,
2013-11-06 23:06:00,52.6,51.8,30.09,SSW,209,0.0,-999.0,97,0.00,,,0.00,Wunderground v.1.15,2013-11-07 04:06:00,
2013-11-06 23:11:00,52.8,52.0,30.09,SSW,209,0.0,-999.0,97,0.00,,,0.00,Wunderground v.1.15,2013-11-07 04:11:00,
2013-11-06 23:16:00,52.9,52.1,30.09,SSW,209,0.0,-999.0,97,0.00,,,0.00,Wunderground v.1.15,2013-11-07 04:16:00,
2013-11-06 23:21:00,53.1,52.3,30.09,SSW,209,0.0,-999.0,97,0.00,,,0.00,Wunderground v.1.15,2013-11-07 04:21:00,
2013-11-06 23:26:00,53.2,52.4,30.09,SSW,209,0.0,-999.0,97,0.00,,,0.00,Wunderground v.1.15,2013-11-07 04:26:00,
2013-11-06 23:31:00,53.5,52.7,30.09,SSW,209,3.0,-999.0,97,0.00,,,0.00,Wunderground v.1.15,2013-11-07 04:31:00,
2013-11-06 23:36:00,53.6,52.8,30.09,SSW,211,6.0,-999.0,97,0.00,,,0.00,Wunderground v.1.15,2013-11-07 04:36:00,
2013-11-06 23:41:00,53.5,52.7,30.07,SW,216,5.0,-999.0,97,0.00,,,0.00,Wunderground v.1.15,2013-11-07 04:41:00,
2013-11-06 23:46:00,53.5,52.7,30.07,SW,236,4.0,-999.0,97,0.00,,,0.00,Wunderground v.1.15,2013-11-07 04:46:00,
2013-11-06 23:51:00,53.6,52.8,30.07,SW,224,6.0,-999.0,97,0.00,,,0.00,Wunderground v.1.15,2013-11-07 04:51:00,
2013-11-06 23:56:00,53.8,53.2,30.07,SW,233,7.0,-999.0,98,0.00,,,0.00,Wunderground v.1.15,2013-11-07 04:56:00,